Time;durP1;ratioP1;P1;durP2;ratioP2;P2;SDS_P1;SDS_P2;PMS_P1;PMS_P2;Temp;Humidity;BMP_temperature;BMP_pressure;BME280_temperature;BME280_humidity;BME280_pressure;Samples;Min_cycle;Max_cycle;Signal;HPM_P1;HPM_P2
2022/06/14 00:01:06;;;;;;;10.20;5.30;;;15.70;76.40;;;;;;5019613;28;20209;-74
2022/06/14 00:03:43;;;;;;;7.23;4.53;;;15.70;76.50;;;;;;5020237;28;20610;-72
2022/06/14 00:06:16;;;;;;;8.77;4.93;;;15.60;76.70;;;;;;5011549;28;20220;-71
2022/06/14 00:08:42;;;;;;;9.07;5.23;;;15.60;77.00;;;;;;5008079;28;20457;-73
2022/06/14 00:11:14;;;;;;;13.00;5.70;;;15.60;77.40;;;;;;5014018;28;20436;-73
2022/06/14 00:13:40;;;;;;;8.60;5.00;;;15.60;77.40;;;;;;5011337;28;20444;-74
2022/06/14 00:16:08;;;;;;;9.60;5.60;;;15.60;77.10;;;;;;5013563;28;20518;-73
2022/06/14 00:18:34;;;;;;;8.03;4.83;;;15.60;77.00;;;;;;5007607;28;20460;-71
2022/06/14 00:21:00;;;;;;;8.03;4.70;;;15.60;77.10;;;;;;5012883;28;20419;-71
2022/06/14 00:23:26;;;;;;;8.30;4.67;;;15.50;77.10;;;;;;5010584;28;20420;-71
2022/06/14 00:25:55;;;;;;;10.20;5.03;;;15.50;77.60;;;;;;5013116;28;20467;-73
2022/06/14 00:28:22;;;;;;;7.20;4.63;;;15.50;77.40;;;;;;5009573;28;20221;-72
2022/06/14 00:30:51;;;;;;;9.13;5.33;;;15.50;77.40;;;;;;5013687;28;20454;-71
2022/06/14 00:33:17;;;;;;;8.80;4.70;;;15.50;77.40;;;;;;5013502;28;20446;-73
2022/06/14 00:35:43;;;;;;;10.93;4.77;;;15.30;77.80;;;;;;5015004;28;20428;-73
2022/06/14 00:38:11;;;;;;;9.00;5.10;;;15.30;78.00;;;;;;5009379;28;20461;-70
2022/06/14 00:40:38;;;;;;;11.20;5.20;;;15.30;77.80;;;;;;5012542;28;20438;-72
2022/06/14 00:43:12;;;;;;;9.63;5.23;;;15.30;77.80;;;;;;5014695;28;21193;-71
2022/06/14 00:45:37;;;;;;;9.20;5.23;;;15.20;78.30;;;;;;5011780;28;20472;-72
2022/06/14 00:48:26;;;;;;;11.53;5.20;;;15.20;78.30;;;;;;5011704;28;20828;-72
2022/06/14 00:51:01;;;;;;;10.20;5.17;;;15.10;78.60;;;;;;5017368;28;20613;-72
2022/06/14 00:53:38;;;;;;;8.53;5.30;;;15.20;78.40;;;;;;5015113;28;20419;-72
2022/06/14 00:56:06;;;;;;;9.03;5.77;;;15.10;78.70;;;;;;5009868;28;20449;-73
2022/06/14 00:59:03;;;;;;;10.03;5.27;;;15.10;78.90;;;;;;5007547;28;20543;-73
2022/06/14 01:01:34;;;;;;;9.53;5.13;;;15.10;79.30;;;;;;5012328;28;20443;-73
2022/06/14 01:04:10;;;;;;;11.47;5.33;;;15.20;79.00;;;;;;5011078;28;20786;-72
2022/06/14 01:06:40;;;;;;;9.13;5.20;;;15.10;78.70;;;;;;5009023;28;20471;-72
2022/06/14 01:09:21;;;;;;;8.60;5.07;;;15.00;78.90;;;;;;5006245;28;20833;-74
2022/06/14 01:11:55;;;;;;;9.93;4.90;;;15.00;79.30;;;;;;5006444;28;20774;-73
2022/06/14 01:14:34;;;;;;;11.67;5.80;;;15.00;79.20;;;;;;5014253;28;20415;-73
2022/06/14 01:17:00;;;;;;;10.13;5.07;;;15.00;79.20;;;;;;5018283;28;20420;-74
2022/06/14 01:19:26;;;;;;;10.70;5.97;;;15.00;79.20;;;;;;5007867;28;20463;-72
2022/06/14 01:22:18;;;;;;;11.70;4.80;;;15.00;79.00;;;;;;5015557;28;20426;-72
2022/06/14 01:24:44;;;;;;;10.63;5.50;;;15.00;79.30;;;;;;5010068;28;20425;-72
2022/06/14 01:27:14;;;;;;;12.57;5.93;;;14.80;79.60;;;;;;5009881;28;20563;-73
2022/06/14 01:29:48;;;;;;;11.73;5.10;;;14.70;80.00;;;;;;5006869;28;20550;-73
2022/06/14 01:32:15;;;;;;;8.80;5.30;;;14.70;80.30;;;;;;5016518;28;20931;-71
2022/06/14 01:34:50;;;;;;;8.07;4.67;;;14.70;80.00;;;;;;5014726;28;20462;-72
2022/06/14 01:37:16;;;;;;;11.87;5.17;;;14.70;80.20;;;;;;5014185;28;20412;-72
2022/06/14 01:39:42;;;;;;;11.13;4.90;;;14.70;80.30;;;;;;5017741;28;20531;-72
2022/06/14 01:42:19;;;;;;;11.50;5.50;;;14.70;80.30;;;;;;5014565;28;20430;-73
2022/06/14 01:44:45;;;;;;;8.80;5.30;;;14.70;80.30;;;;;;5011085;28;20580;-72
2022/06/14 01:47:30;;;;;;;9.80;4.80;;;14.70;80.30;;;;;;5014105;28;20579;-72
2022/06/14 01:53:27;;;;;;;13.07;5.97;;;14.70;80.00;;;;;;5016965;28;20538;-73
2022/06/14 01:56:09;;;;;;;10.80;5.90;;;14.60;80.00;;;;;;5013961;28;20800;-72
2022/06/14 01:59:08;;;;;;;10.43;4.90;;;14.60;80.30;;;;;;5011799;28;20485;-73
2022/06/14 02:01:44;;;;;;;8.77;5.37;;;14.60;80.50;;;;;;5011368;28;20455;-73
2022/06/14 02:04:38;;;;;;;9.63;5.90;;;14.50;80.80;;;;;;5013165;28;20490;-72
2022/06/14 02:07:14;;;;;;;10.13;5.30;;;14.50;80.80;;;;;;5011559;28;20464;-73
2022/06/14 02:09:50;;;;;;;12.63;5.40;;;14.50;81.50;;;;;;5011564;28;20459;-72
2022/06/14 02:12:21;;;;;;;10.07;6.00;;;14.50;81.50;;;;;;5012078;28;20413;-73
2022/06/14 02:15:05;;;;;;;9.73;6.23;;;14.40;81.90;;;;;;5017981;28;20451;-73
2022/06/14 02:17:36;;;;;;;11.80;6.30;;;14.30;82.40;;;;;;5012810;28;20422;-72
2022/06/14 02:20:14;;;;;;;11.70;6.80;;;14.20;82.40;;;;;;5017404;28;20428;-73
2022/06/14 02:22:45;;;;;;;13.33;5.53;;;14.30;82.50;;;;;;5010289;28;20419;-73
2022/06/14 02:25:12;;;;;;;8.73;5.80;;;14.20;82.50;;;;;;5017670;28;20508;-73
2022/06/14 02:28:05;;;;;;;10.57;5.70;;;14.20;82.10;;;;;;5012450;28;20435;-73
2022/06/14 02:30:56;;;;;;;12.17;6.50;;;14.10;82.40;;;;;;5014176;28;20489;-73
2022/06/14 02:33:31;;;;;;;13.27;6.37;;;14.10;82.40;;;;;;5016835;28;20424;-72
2022/06/14 02:36:11;;;;;;;11.67;6.03;;;14.00;82.80;;;;;;5028574;28;20416;-73
2022/06/14 02:39:05;;;;;;;10.43;6.10;;;14.00;82.80;;;;;;5016133;28;20461;-71
2022/06/14 02:41:35;;;;;;;10.23;5.23;;;14.00;82.70;;;;;;5010369;28;20428;-72
2022/06/14 02:44:20;;;;;;;12.00;6.10;;;14.00;83.00;;;;;;5011635;28;20421;-73
2022/06/14 02:47:25;;;;;;;10.63;5.67;;;14.00;83.30;;;;;;5020760;28;20932;-73
2022/06/14 02:50:00;;;;;;;9.60;6.00;;;14.10;83.30;;;;;;5011615;28;20531;-73
2022/06/14 02:52:32;;;;;;;8.67;5.87;;;14.10;83.10;;;;;;5013531;28;20409;-74
2022/06/14 02:55:04;;;;;;;12.43;6.23;;;14.10;82.80;;;;;;5013418;28;20424;-73
2022/06/14 02:57:46;;;;;;;11.37;5.80;;;14.10;82.80;;;;;;5010470;28;20420;-72
2022/06/14 03:00:18;;;;;;;10.43;5.90;;;14.10;82.70;;;;;;5012848;28;20541;-74
2022/06/14 03:02:53;;;;;;;11.30;6.53;;;14.00;83.00;;;;;;5019606;28;20451;-73
2022/06/14 03:05:34;;;;;;;13.87;5.53;;;14.00;83.40;;;;;;5018776;28;20418;-74
2022/06/14 03:08:05;;;;;;;11.37;6.97;;;14.00;83.60;;;;;;5009492;28;20823;-74
2022/06/14 03:10:39;;;;;;;13.80;6.10;;;13.90;83.70;;;;;;5014454;28;20421;-72
2022/06/14 03:13:25;;;;;;;12.77;6.70;;;13.90;83.70;;;;;;5013571;28;20428;-72
2022/06/14 03:16:05;;;;;;;10.17;5.73;;;13.90;84.00;;;;;;5011044;28;20427;-73
2022/06/14 03:18:58;;;;;;;10.63;5.90;;;13.90;84.00;;;;;;5007006;28;20994;-72
2022/06/14 03:21:50;;;;;;;9.10;6.50;;;13.80;84.10;;;;;;5013270;28;20974;-74
2022/06/14 03:24:16;;;;;;;19.07;6.33;;;13.80;84.10;;;;;;5008771;28;20835;-73
2022/06/14 03:27:19;;;;;;;13.27;5.87;;;13.80;84.30;;;;;;5016757;28;20504;-74
2022/06/14 03:30:10;;;;;;;11.47;6.50;;;13.80;84.00;;;;;;4999318;28;20210;-73
2022/06/14 03:32:49;;;;;;;10.70;6.03;;;13.80;84.10;;;;;;5007812;28;20420;-73
2022/06/14 03:35:44;;;;;;;11.67;6.53;;;13.80;84.10;;;;;;5015424;28;20436;-73
2022/06/14 03:38:13;;;;;;;11.27;6.27;;;13.80;84.10;;;;;;5012251;28;20456;-73
2022/06/14 03:40:42;;;;;;;12.97;6.97;;;13.80;84.10;;;;;;5014432;28;20427;-72
2022/06/14 03:43:08;;;;;;;12.37;7.70;;;13.80;84.00;;;;;;5013733;28;20456;-72
2022/06/14 03:45:44;;;;;;;9.03;6.30;;;13.70;84.10;;;;;;5013148;28;20469;-73
2022/06/14 03:48:11;;;;;;;9.20;6.00;;;13.70;84.10;;;;;;5011106;28;20550;-74
2022/06/14 03:51:03;;;;;;;12.60;6.27;;;13.70;84.30;;;;;;5012219;28;20429;-72
2022/06/14 03:53:37;;;;;;;11.70;6.50;;;13.80;84.30;;;;;;5018244;28;20954;-72
2022/06/14 03:56:09;;;;;;;10.50;6.57;;;13.70;84.40;;;;;;5027531;28;20858;-72
2022/06/14 03:58:46;;;;;;;15.80;6.97;;;13.80;84.60;;;;;;5016863;28;20468;-72
2022/06/14 04:01:19;;;;;;;9.93;6.00;;;13.90;83.80;;;;;;5034274;28;20479;-72
2022/06/14 04:04:17;;;;;;;12.17;6.70;;;13.90;83.70;;;;;;5015867;28;20455;-73
2022/06/14 04:07:00;;;;;;;13.03;7.13;;;13.80;83.60;;;;;;5009801;28;20460;-73
2022/06/14 04:09:50;;;;;;;11.60;6.57;;;13.80;83.70;;;;;;5009161;28;20453;-72
2022/06/14 04:12:43;;;;;;;7.40;5.30;;;13.70;84.10;;;;;;5013722;28;20772;-72
2022/06/14 04:15:31;;;;;;;11.80;6.30;;;13.80;84.10;;;;;;5012085;28;20462;-73
2022/06/14 04:21:21;;;;;;;10.77;5.97;;;13.70;84.40;;;;;;5012467;28;20465;-72
2022/06/14 04:24:27;;;;;;;9.30;6.27;;;13.70;84.60;;;;;;5019405;28;20429;-73
2022/06/14 04:26:53;;;;;;;12.20;6.57;;;13.80;84.30;;;;;;5010638;28;20516;-73
2022/06/14 04:29:18;;;;;;;11.10;7.07;;;13.80;84.30;;;;;;5017271;28;20556;-72
2022/06/14 04:32:10;;;;;;;10.57;6.20;;;13.70;84.60;;;;;;5022066;28;20197;-73
2022/06/14 04:34:42;;;;;;;8.80;6.40;;;13.80;84.70;;;;;;5008302;28;20177;-72
2022/06/14 04:37:22;;;;;;;15.47;8.10;;;13.80;84.90;;;;;;5009337;28;20429;-73
2022/06/14 04:39:55;;;;;;;11.37;6.63;;;13.90;84.70;;;;;;5008614;28;20476;-72
2022/06/14 04:42:24;;;;;;;11.40;6.60;;;14.00;84.40;;;;;;5045340;28;20963;-73
2022/06/14 04:44:56;;;;;;;14.63;6.93;;;14.20;84.10;;;;;;5014810;28;20559;-73
2022/06/14 04:47:48;;;;;;;12.80;6.20;;;14.30;84.00;;;;;;5010197;28;20469;-74
2022/06/14 04:50:22;;;;;;;10.73;6.40;;;14.40;83.10;;;;;;5014916;28;20415;-73
2022/06/14 04:52:55;;;;;;;14.93;7.43;;;14.40;82.80;;;;;;5010762;28;20421;-74
2022/06/14 04:55:35;;;;;;;12.90;6.80;;;14.50;81.90;;;;;;5012121;28;20417;-73
2022/06/14 04:58:31;;;;;;;8.90;6.13;;;14.50;81.90;;;;;;5012160;28;20508;-72
2022/06/14 05:01:00;;;;;;;14.03;6.57;;;14.60;81.80;;;;;;5019185;28;20433;-73
2022/06/14 05:04:01;;;;;;;11.20;6.90;;;14.70;81.10;;;;;;5027908;28;20483;-72
2022/06/14 05:06:53;;;;;;;11.20;7.33;;;14.60;81.10;;;;;;5028330;28;20474;-72
2022/06/14 05:09:40;;;;;;;12.40;7.43;;;14.60;81.50;;;;;;5020783;28;20525;-72
2022/06/14 05:12:32;;;;;;;14.93;7.60;;;14.60;81.50;;;;;;5029738;28;20428;-72
2022/06/14 05:15:17;;;;;;;15.97;7.50;;;14.60;81.80;;;;;;5027886;28;20409;-72
2022/06/14 05:18:00;;;;;;;11.70;7.30;;;14.60;81.70;;;;;;5018554;28;20453;-72
2022/06/14 05:20:55;;;;;;;15.57;7.03;;;14.70;81.70;;;;;;5014574;28;20420;-73
2022/06/14 05:23:48;;;;;;;17.23;7.90;;;14.80;81.70;;;;;;5019312;28;20415;-72
2022/06/14 05:26:22;;;;;;;14.07;7.83;;;14.90;81.20;;;;;;5030681;28;20477;-72
2022/06/14 05:29:21;;;;;;;14.73;7.10;;;15.00;79.90;;;;;;5009515;28;20520;-72
2022/06/14 05:32:13;;;;;;;15.77;7.70;;;15.00;78.90;;;;;;5007370;28;20432;-73
2022/06/14 05:35:00;;;;;;;16.00;8.33;;;15.10;78.90;;;;;;5005782;28;20471;-71
2022/06/14 05:38:12;;;;;;;12.13;7.23;;;15.20;79.00;;;;;;5015895;28;20437;-72
2022/06/14 05:40:44;;;;;;;11.27;7.60;;;15.30;78.70;;;;;;4988858;28;20461;-74
2022/06/14 05:43:19;;;;;;;15.37;7.63;;;15.30;78.90;;;;;;5014612;28;20474;-73
2022/06/14 05:45:55;;;;;;;12.30;7.33;;;15.40;79.00;;;;;;5012551;28;20475;-73
2022/06/14 05:48:30;;;;;;;15.73;8.83;;;15.50;79.00;;;;;;5005063;28;20452;-72
2022/06/14 05:50:58;;;;;;;17.70;8.63;;;15.70;78.70;;;;;;5012988;28;20426;-72
2022/06/14 05:53:47;;;;;;;14.97;8.50;;;15.70;78.60;;;;;;5010587;28;20422;-72
2022/06/14 05:56:31;;;;;;;17.67;9.60;;;15.70;78.90;;;;;;5012179;28;20492;-72
2022/06/14 05:59:06;;;;;;;21.67;9.63;;;15.80;78.90;;;;;;5007038;28;20472;-72
2022/06/14 06:01:39;;;;;;;17.57;8.57;;;15.80;79.00;;;;;;5013791;28;20423;-77
2022/06/14 06:04:20;;;;;;;16.43;9.47;;;15.90;79.20;;;;;;5011873;28;20749;-74
2022/06/14 06:06:55;;;;;;;13.67;7.80;;;15.90;79.50;;;;;;5005784;28;20464;-74
2022/06/14 06:09:40;;;;;;;11.80;8.10;;;16.00;78.90;;;;;;5002715;28;20487;-73
2022/06/14 06:12:19;;;;;;;13.70;8.00;;;16.10;77.80;;;;;;5009324;28;20964;-75
2022/06/14 06:14:57;;;;;;;16.20;9.00;;;16.20;78.00;;;;;;5012867;28;20416;-74
2022/06/14 06:17:45;;;;;;;16.77;9.60;;;16.30;77.80;;;;;;5012268;28;20432;-73
2022/06/14 06:20:18;;;;;;;14.90;9.20;;;16.40;77.00;;;;;;5012991;28;20432;-75
2022/06/14 06:22:54;;;;;;;15.63;8.40;;;16.30;76.80;;;;;;5018026;28;20897;-74
2022/06/14 06:25:25;;;;;;;21.57;9.00;;;16.30;76.80;;;;;;5015254;28;20783;-73
2022/06/14 06:28:02;;;;;;;15.20;8.37;;;16.40;76.80;;;;;;5009890;28;20761;-73
2022/06/14 06:30:49;;;;;;;13.93;8.00;;;16.50;76.20;;;;;;5019746;28;20419;-73
2022/06/14 06:33:17;;;;;;;13.90;8.40;;;16.60;75.80;;;;;;5015233;28;20467;-73
2022/06/14 06:36:05;;;;;;;14.70;8.43;;;16.70;75.20;;;;;;5023027;28;20418;-73
2022/06/14 06:39:02;;;;;;;19.07;9.50;;;16.90;75.20;;;;;;5008234;28;21002;-75
2022/06/14 06:41:50;;;;;;;18.97;8.50;;;17.00;74.80;;;;;;5014702;28;20431;-76
2022/06/14 06:44:37;;;;;;;12.83;8.00;;;17.00;75.10;;;;;;5015230;28;20412;-72
2022/06/14 06:47:31;;;;;;;16.50;8.67;;;17.10;74.80;;;;;;5016561;28;20474;-73
2022/06/14 06:50:14;;;;;;;15.23;8.67;;;17.20;74.00;;;;;;5020689;28;20436;-72
2022/06/14 06:52:42;;;;;;;20.53;8.57;;;17.20;73.70;;;;;;5018233;28;20750;-73
2022/06/14 06:55:35;;;;;;;17.60;8.00;;;17.30;73.00;;;;;;5017209;28;20792;-73
2022/06/14 06:58:06;;;;;;;15.50;8.00;;;17.30;72.90;;;;;;5011991;28;20536;-73
2022/06/14 07:00:33;;;;;;;12.90;7.83;;;17.30;72.40;;;;;;5015065;28;20420;-75
2022/06/14 07:03:04;;;;;;;25.77;8.73;;;17.40;71.70;;;;;;5014978;28;20519;-74
2022/06/14 07:05:30;;;;;;;14.53;7.93;;;17.50;71.30;;;;;;5014129;28;20478;-74
2022/06/14 07:08:11;;;;;;;13.63;7.00;;;17.60;71.10;;;;;;5019474;28;20448;-74
2022/06/14 07:10:48;;;;;;;12.23;7.33;;;17.70;70.50;;;;;;5014479;28;20672;-73
2022/06/14 07:13:29;;;;;;;17.17;7.57;;;17.90;69.80;;;;;;5014561;28;20408;-73
2022/06/14 07:16:15;;;;;;;20.23;8.30;;;18.00;69.10;;;;;;5014108;28;20418;-73
2022/06/14 07:18:53;;;;;;;14.20;7.47;;;18.10;68.90;;;;;;5013815;28;20521;-75
2022/06/14 07:21:36;;;;;;;15.27;7.53;;;18.20;68.90;;;;;;5014367;28;20420;-73
2022/06/14 07:24:20;;;;;;;12.20;7.37;;;18.30;68.60;;;;;;5008447;28;20421;-73
2022/06/14 07:26:54;;;;;;;13.50;7.17;;;18.40;68.00;;;;;;5020730;28;20455;-74
2022/06/14 07:29:40;;;;;;;14.23;7.40;;;18.40;67.00;;;;;;5037566;28;20450;-75
2022/06/14 07:32:42;;;;;;;13.00;6.93;;;18.50;66.30;;;;;;5021445;28;20513;-75
2022/06/14 07:35:08;;;;;;;10.33;6.13;;;18.60;65.80;;;;;;4976162;28;20512;-74
2022/06/14 07:38:02;;;;;;;12.07;6.70;;;18.70;65.60;;;;;;4996077;28;20532;-76
2022/06/14 07:41:03;;;;;;;13.73;7.17;;;18.70;65.70;;;;;;4988298;28;21115;-72
2022/06/14 07:43:50;;;;;;;20.43;7.20;;;18.90;64.10;;;;;;4995306;28;20433;-72
2022/06/14 07:46:25;;;;;;;15.87;7.03;;;18.80;64.50;;;;;;5008277;28;20805;-73
2022/06/14 07:48:54;;;;;;;12.00;7.20;;;18.80;64.80;;;;;;4996036;28;20472;-76
2022/06/14 07:51:33;;;;;;;10.60;7.13;;;18.90;64.10;;;;;;4993624;28;20488;-74
2022/06/14 07:54:30;;;;;;;12.07;6.53;;;19.00;64.10;;;;;;4995245;28;20423;-76
2022/06/14 07:57:20;;;;;;;15.73;7.57;;;19.10;63.70;;;;;;4995180;28;20966;-74
2022/06/14 08:03:40;;;;;;;12.20;7.70;;;19.20;64.10;;;;;;4986303;28;20435;-75
2022/06/14 08:06:11;;;;;;;12.73;7.50;;;19.30;64.10;;;;;;4992080;28;20477;-74
2022/06/14 08:08:40;;;;;;;13.10;7.10;;;19.30;63.40;;;;;;4993184;28;20463;-74
2022/06/14 08:11:22;;;;;;;10.70;6.77;;;19.40;63.10;;;;;;4997330;28;20437;-75
2022/06/14 08:13:55;;;;;;;15.33;7.30;;;19.40;62.30;;;;;;5003605;28;20875;-75
2022/06/14 08:16:24;;;;;;;11.70;7.33;;;19.50;62.60;;;;;;4983189;28;20961;-76
2022/06/14 08:19:16;;;;;;;9.77;6.80;;;19.60;61.60;;;;;;4995285;28;20475;-75
2022/06/14 08:21:54;;;;;;;12.10;6.90;;;19.70;61.70;;;;;;4998701;28;20999;-76
2022/06/14 08:24:24;;;;;;;18.30;7.40;;;19.80;61.70;;;;;;4997314;28;20424;-76
2022/06/14 08:27:01;;;;;;;17.37;7.20;;;19.80;61.00;;;;;;4981551;28;20553;-75
2022/06/14 08:29:42;;;;;;;13.03;6.57;;;19.90;60.70;;;;;;4998157;28;20579;-75
2022/06/14 08:32:16;;;;;;;10.23;6.27;;;19.90;60.10;;;;;;4983612;28;20436;-75
2022/06/14 08:35:00;;;;;;;16.93;6.40;;;20.00;60.70;;;;;;5000762;28;20826;-74
2022/06/14 08:37:36;;;;;;;16.23;6.83;;;20.00;60.30;;;;;;4994724;28;20435;-75
2022/06/14 08:40:17;;;;;;;15.77;6.47;;;20.10;59.30;;;;;;5013718;28;20515;-74
2022/06/14 08:42:56;;;;;;;13.80;6.90;;;20.20;59.60;;;;;;5009936;28;20513;-75
2022/06/14 08:45:58;;;;;;;16.70;7.00;;;20.30;59.10;;;;;;5011849;28;20455;-75
2022/06/14 08:48:41;;;;;;;10.33;5.50;;;20.30;59.10;;;;;;5009454;28;20573;-74
2022/06/14 08:51:33;;;;;;;13.37;7.00;;;20.20;59.50;;;;;;5009399;28;21086;-74
2022/06/14 08:54:22;;;;;;;13.67;6.07;;;20.20;59.90;;;;;;5013786;28;20412;-75
2022/06/14 08:57:21;;;;;;;10.43;6.40;;;20.30;59.50;;;;;;5007149;28;20515;-74
2022/06/14 09:00:06;;;;;;;11.00;6.43;;;20.40;58.20;;;;;;5014687;28;20546;-75
2022/06/14 09:02:53;;;;;;;10.33;5.73;;;20.50;57.70;;;;;;5015933;28;20421;-74
2022/06/14 09:05:37;;;;;;;14.80;6.47;;;20.50;58.00;;;;;;5022339;28;20928;-74
2022/06/14 09:08:06;;;;;;;10.27;5.67;;;20.40;57.80;;;;;;5005719;28;20450;-73
2022/06/14 09:10:46;;;;;;;16.73;6.43;;;20.20;58.10;;;;;;5005781;28;20430;-75
2022/06/14 09:13:26;;;;;;;15.53;6.87;;;20.40;58.40;;;;;;5015119;28;20399;-75
2022/06/14 09:16:17;;;;;;;13.33;6.20;;;20.60;57.80;;;;;;5013948;28;20419;-74
2022/06/14 09:18:57;;;;;;;10.83;6.57;;;20.70;57.80;;;;;;5008310;28;20545;-74
2022/06/14 09:21:43;;;;;;;10.73;5.40;;;20.70;56.60;;;;;;5010990;28;20425;-75
2022/06/14 09:24:37;;;;;;;8.13;5.40;;;20.70;54.90;;;;;;5011156;28;20418;-74
2022/06/14 09:27:06;;;;;;;13.33;5.80;;;20.80;55.40;;;;;;5009319;28;20493;-74
2022/06/14 09:30:01;;;;;;;13.13;6.43;;;20.90;55.40;;;;;;5016894;28;20588;-74
2022/06/14 09:33:09;;;;;;;9.67;6.40;;;21.00;56.10;;;;;;5008523;28;20446;-74
2022/06/14 09:35:40;;;;;;;10.17;5.13;;;21.10;55.80;;;;;;5010896;28;20983;-75
2022/06/14 09:38:50;;;;;;;9.27;5.57;;;21.20;55.30;;;;;;5007575;28;20514;-74
2022/06/14 09:41:34;;;;;;;11.43;5.83;;;21.30;54.90;;;;;;5008405;28;20418;-76
2022/06/14 09:44:05;;;;;;;9.83;5.80;;;21.40;55.20;;;;;;5017852;28;20438;-73
2022/06/14 09:46:59;;;;;;;9.40;5.37;;;21.50;53.20;;;;;;5026821;28;20478;-74
2022/06/14 09:49:43;;;;;;;9.23;4.70;;;21.50;50.50;;;;;;5023350;28;20462;-73
2022/06/14 09:52:33;;;;;;;7.33;5.23;;;21.50;50.70;;;;;;5028871;28;20442;-73
2022/06/14 09:55:30;;;;;;;12.10;6.70;;;21.50;50.30;;;;;;5028491;28;20423;-73
2022/06/14 09:58:25;;;;;;;7.97;4.77;;;21.60;49.80;;;;;;5018329;28;20528;-74
2022/06/14 10:01:22;;;;;;;8.90;5.10;;;21.60;48.20;;;;;;4996606;28;20426;-72
2022/06/14 10:04:01;;;;;;;12.00;5.40;;;21.80;48.70;;;;;;4996195;28;20460;-73
2022/06/14 10:06:37;;;;;;;8.00;5.10;;;21.80;48.50;;;;;;4995602;28;20468;-74
2022/06/14 10:09:32;;;;;;;8.90;5.07;;;21.80;49.40;;;;;;4990524;28;20483;-74
2022/06/14 10:12:11;;;;;;;8.53;5.10;;;21.80;49.00;;;;;;4992153;28;20424;-73
2022/06/14 10:15:01;;;;;;;7.47;5.20;;;21.80;49.80;;;;;;4992780;28;20427;-72
2022/06/14 10:18:05;;;;;;;10.93;5.97;;;21.90;48.30;;;;;;4993778;28;20500;-73
2022/06/14 10:20:54;;;;;;;8.43;5.30;;;22.10;48.60;;;;;;4958603;28;20847;-75
2022/06/14 10:23:44;;;;;;;12.90;5.60;;;22.50;49.80;;;;;;4990765;28;20423;-74
2022/06/14 10:29:39;;;;;;;12.93;5.83;;;23.30;46.50;;;;;;4990884;28;20458;-73
2022/06/14 10:32:19;;;;;;;10.23;6.37;;;23.40;47.80;;;;;;4994692;28;20518;-75
2022/06/14 10:34:56;;;;;;;10.03;5.87;;;23.50;47.10;;;;;;4991127;28;20446;-74
2022/06/14 10:37:52;;;;;;;13.83;6.40;;;23.30;47.70;;;;;;4995963;28;20939;-73
2022/06/14 10:40:21;;;;;;;9.87;6.03;;;22.90;49.30;;;;;;5015654;28;20426;-72
2022/06/14 10:43:04;;;;;;;10.67;7.33;;;22.90;49.30;;;;;;5019571;28;20418;-74
2022/06/14 10:45:57;;;;;;;10.27;5.70;;;22.90;49.30;;;;;;5014519;28;20414;-73
2022/06/14 10:48:41;;;;;;;10.50;5.90;;;23.10;49.30;;;;;;5018936;28;21002;-75
2022/06/14 10:51:13;;;;;;;11.60;5.80;;;23.40;47.90;;;;;;5021854;28;20465;-72
2022/06/14 10:53:56;;;;;;;8.67;5.50;;;23.50;47.40;;;;;;5018444;28;20432;-72
2022/06/14 10:56:57;;;;;;;9.73;5.90;;;24.10;47.30;;;;;;5012942;28;20420;-74
2022/06/14 10:59:53;;;;;;;9.17;6.27;;;24.10;46.10;;;;;;4995999;28;20489;-74
2022/06/14 11:02:25;;;;;;;8.57;5.60;;;24.30;45.50;;;;;;5017068;28;20430;-74
2022/06/14 11:05:01;;;;;;;8.53;6.00;;;24.10;45.70;;;;;;5018244;28;20667;-75
2022/06/14 11:07:33;;;;;;;7.43;4.73;;;23.90;45.90;;;;;;5017948;28;20980;-74
2022/06/14 11:10:04;;;;;;;7.10;5.10;;;24.30;46.70;;;;;;5009576;28;20493;-73
2022/06/14 11:12:36;;;;;;;5.53;4.73;;;24.90;44.50;;;;;;5012779;28;20424;-74
2022/06/14 11:15:05;;;;;;;9.13;5.30;;;25.30;43.50;;;;;;5015773;28;20422;-73
2022/06/14 11:17:44;;;;;;;12.67;5.40;;;25.70;42.70;;;;;;5014438;28;20430;-76
2022/06/14 11:20:31;;;;;;;10.50;5.47;;;25.90;41.20;;;;;;5012163;28;20924;-73
2022/06/14 11:23:12;;;;;;;9.77;5.53;;;25.80;42.40;;;;;;5015043;28;20485;-74
2022/06/14 11:25:50;;;;;;;8.97;5.00;;;25.50;42.60;;;;;;5018137;28;20427;-73
2022/06/14 11:28:28;;;;;;;9.00;5.47;;;25.00;43.10;;;;;;5008896;28;20453;-74
2022/06/14 11:30:56;;;;;;;10.27;5.47;;;25.10;43.70;;;;;;5011171;28;20437;-73
2022/06/14 11:33:50;;;;;;;9.20;5.30;;;25.40;42.30;;;;;;5014184;28;20443;-75
2022/06/14 11:36:16;;;;;;;7.30;5.03;;;24.90;43.40;;;;;;5048493;28;20443;-74
2022/06/14 11:39:03;;;;;;;9.43;5.20;;;24.70;42.80;;;;;;5013068;28;20989;-74
2022/06/14 11:41:37;;;;;;;8.70;5.60;;;24.60;42.60;;;;;;5016372;28;20283;-72
2022/06/14 11:44:20;;;;;;;9.70;4.80;;;24.50;43.10;;;;;;5013485;28;20528;-73
2022/06/14 11:47:02;;;;;;;9.50;5.23;;;24.40;43.50;;;;;;5020551;28;20476;-74
2022/06/14 11:49:47;;;;;;;6.57;4.77;;;24.80;42.60;;;;;;5019043;28;20462;-73
2022/06/14 11:52:21;;;;;;;6.63;4.93;;;24.80;41.20;;;;;;5010280;28;20425;-73
2022/06/14 11:55:17;;;;;;;7.07;5.03;;;24.60;41.60;;;;;;5011542;28;20445;-73
2022/06/14 11:58:05;;;;;;;8.57;4.50;;;24.30;41.80;;;;;;5009663;28;20515;-73
2022/06/14 12:00:55;;;;;;;9.87;5.00;;;24.30;41.80;;;;;;5018626;28;20437;-74
2022/06/14 12:03:42;;;;;;;6.67;4.73;;;24.60;42.20;;;;;;5021025;28;20516;-73
2022/06/14 12:06:41;;;;;;;9.97;5.03;;;25.00;41.90;;;;;;5011164;28;20947;-76
2022/06/14 12:09:19;;;;;;;5.70;4.27;;;25.60;41.40;;;;;;5007613;28;20482;-76
2022/06/14 12:11:55;;;;;;;10.13;4.80;;;25.90;39.90;;;;;;5013984;28;20412;-73
2022/06/14 12:14:49;;;;;;;9.00;5.50;;;25.40;40.60;;;;;;5020642;28;20443;-71
2022/06/14 12:17:41;;;;;;;7.30;4.57;;;24.90;41.90;;;;;;5018914;28;20459;-73
2022/06/14 12:20:20;;;;;;;8.80;5.40;;;25.00;41.00;;;;;;5012733;28;20780;-73
2022/06/14 12:22:51;;;;;;;8.00;4.73;;;25.40;40.20;;;;;;5007344;28;20437;-74
2022/06/14 12:28:54;;;;;;;8.83;5.07;;;25.60;39.90;;;;;;5013959;28;21042;-74
2022/06/14 12:31:44;;;;;;;6.60;4.87;;;25.80;39.50;;;;;;5008148;28;20483;-74
2022/06/14 12:34:13;;;;;;;9.00;5.20;;;25.60;40.00;;;;;;5015334;28;20412;-72
2022/06/14 12:36:54;;;;;;;11.43;5.10;;;25.90;38.80;;;;;;5008904;28;20487;-73
2022/06/14 12:39:43;;;;;;;10.00;4.90;;;25.30;39.90;;;;;;5014645;28;20460;-73
2022/06/14 12:42:35;;;;;;;13.17;5.50;;;25.60;39.80;;;;;;5011268;28;20435;-72
2022/06/14 12:45:23;;;;;;;7.97;4.70;;;25.90;39.80;;;;;;5012299;28;20897;-73
2022/06/14 12:48:07;;;;;;;6.03;4.00;;;26.30;38.40;;;;;;5010328;28;20470;-73
2022/06/14 12:51:01;;;;;;;7.77;4.40;;;26.50;38.70;;;;;;5011066;28;20425;-74
2022/06/14 12:53:46;;;;;;;7.33;4.77;;;26.50;38.30;;;;;;5005772;28;20467;-73
2022/06/14 12:56:13;;;;;;;6.40;4.63;;;26.00;39.20;;;;;;5009731;28;20430;-73
2022/06/14 12:59:08;;;;;;;8.83;4.33;;;27.00;38.00;;;;;;5007315;28;20477;-72
2022/06/14 13:01:40;;;;;;;7.63;4.40;;;28.00;36.40;;;;;;5007735;28;20507;-74
2022/06/14 13:04:14;;;;;;;7.67;4.17;;;28.70;33.70;;;;;;5015298;28;20421;-74
2022/06/14 13:06:53;;;;;;;11.00;5.27;;;29.20;32.90;;;;;;5010989;28;20487;-74
2022/06/14 13:09:31;;;;;;;7.63;4.47;;;29.30;32.10;;;;;;5007625;28;20557;-74
2022/06/14 13:12:15;;;;;;;9.53;4.87;;;28.50;34.30;;;;;;5009785;28;20451;-74
2022/06/14 13:14:58;;;;;;;9.10;4.47;;;29.20;32.10;;;;;;5005979;28;20440;-73
2022/06/14 13:17:32;;;;;;;10.80;4.93;;;28.70;32.40;;;;;;5008323;28;20417;-72
2022/06/14 13:20:13;;;;;;;8.73;5.00;;;28.70;33.20;;;;;;5011258;28;20468;-73
2022/06/14 13:22:54;;;;;;;7.10;4.40;;;28.90;33.10;;;;;;5012403;28;20424;-74
2022/06/14 13:25:28;;;;;;;5.90;4.20;;;29.20;32.90;;;;;;5011223;28;20421;-74
2022/06/14 13:28:30;;;;;;;5.33;4.33;;;29.70;32.70;;;;;;5014040;28;20478;-72
2022/06/14 13:31:34;;;;;;;7.60;4.40;;;29.90;32.50;;;;;;5020331;28;20424;-74
2022/06/14 13:34:32;;;;;;;5.03;4.37;;;30.60;30.70;;;;;;5016509;28;20780;-73
2022/06/14 13:37:19;;;;;;;6.37;4.30;;;30.30;29.60;;;;;;5009461;28;20531;-75
2022/06/14 13:39:57;;;;;;;6.20;5.40;;;29.50;31.60;;;;;;5007789;28;20461;-73
2022/06/14 13:42:56;;;;;;;8.17;4.93;;;29.80;32.00;;;;;;5011004;28;20440;-74
2022/06/14 13:45:31;;;;;;;6.97;4.70;;;29.80;30.80;;;;;;5009798;28;20522;-74
2022/06/14 13:48:19;;;;;;;4.80;3.93;;;29.00;32.10;;;;;;5006263;28;20487;-73
2022/06/14 13:51:06;;;;;;;7.47;4.80;;;28.80;32.70;;;;;;5013200;28;20425;-74
2022/06/14 13:53:39;;;;;;;7.00;4.03;;;28.40;32.80;;;;;;5008914;28;20409;-72
2022/06/14 13:56:11;;;;;;;6.50;4.43;;;27.70;34.10;;;;;;5014954;28;20927;-74
2022/06/14 13:59:06;;;;;;;7.10;4.97;;;28.40;33.30;;;;;;5008722;28;20877;-74
2022/06/14 14:01:44;;;;;;;6.40;4.20;;;29.40;31.50;;;;;;5010564;28;20467;-74
2022/06/14 14:04:19;;;;;;;5.23;3.30;;;29.80;30.50;;;;;;5019665;28;21927;-74
2022/06/14 14:06:53;;;;;;;5.60;3.43;;;30.30;30.80;;;;;;5020727;28;20468;-73